Latest Weather Observations for Scotts Peak

IDT60801

Issued at 3:35 am EST Wednesday 1 October 2014 (issued every 30 minutes, with the page automatically refreshed every 10 minutes)

About weather observations | Map of weather stations | Latest weather observations for TAS | Other Formats
Station Details ID: 097083 Name: SCOTTS PEAK DAM Lat: -43.04 Lon: 146.27 Height: 408.0 m
Data from the previous 72 hours. | See also: Recent months at Scotts Peak
Date/Time
EST
Temp
°C
App
Temp
°C
Dew
Point
Rel
Hum
%
Delta-T
°C
Wind Press
QNH
hPa
Press
MSL
hPa
Rain
since 9 am
mm
Dir
 
Spd
km/h
Gust
km/h
Spd
kts
Gust
kts
01/03:30am 2.7 -3.2 1.4 91 0.5 WSW 22 28 12 15 - - 25.6
01/03:00am 2.0 -3.2 0.4 89 0.6 WSW 17 30 9 16 - - 24.4
01/02:30am 3.9 -0.8 1.1 82 1.1 WSW 15 26 8 14 - - 23.4
01/02:04am 3.8 -3.4 1.0 82 1.1 W 28 52 15 28 - - 23.4
01/02:00am 3.8 -3.3 1.2 83 1.0 W 28 39 15 21 - - 23.4
01/01:30am 3.9 -3.5 1.8 86 0.8 WNW 30 50 16 27 - - 23.4
01/01:09am 3.3 -3.8 1.3 87 0.8 W 28 46 15 25 - - 23.2
01/01:00am 2.6 -5.3 0.8 88 0.7 WNW 32 46 17 25 - - 23.0
01/12:52am 3.4 -5.1 1.0 84 0.9 WSW 35 46 19 25 - - 22.6
01/12:30am 4.3 -5.1 -0.1 73 1.7 WNW 39 52 21 28 - - 22.2
01/12:00am 3.8 -5.6 0.1 77 1.4 W 39 52 21 28 - - 22.2
 
Date/Time
EST
Temp
°C
App
Temp
°C
Dew
Point
Rel
Hum
%
Delta-T
°C
Wind Press
QNH
hPa
Press
MSL
hPa
Rain
since 9 am
mm
Dir
 
Spd
km/h
Gust
km/h
Spd
kts
Gust
kts
30/11:30pm 3.6 -5.7 0.7 81 1.1 W 39 48 21 26 - - 22.2
30/11:00pm 3.9 -5.8 0.6 79 1.3 W 41 56 22 30 - - 22.2
30/10:35pm 4.3 -5.1 -0.1 73 1.7 W 39 57 21 31 - - 22.2
30/10:30pm 4.3 -5.5 -0.1 73 1.7 W 41 54 22 29 - - 22.2
30/10:03pm 4.2 -5.1 0.9 79 1.3 W 39 57 21 31 - - 22.2
30/10:00pm 3.8 -5.8 1.4 84 1.0 W 41 57 22 31 - - 22.2
30/09:30pm 4.3 -4.2 1.2 80 1.2 W 35 52 19 28 - - 22.2
30/09:16pm 3.9 -3.5 1.6 85 0.9 W 30 54 16 29 - - 22.2
30/09:00pm 3.8 -4.0 1.8 87 0.8 WNW 32 46 17 25 - - 21.8
30/08:53pm 4.2 -2.8 1.9 85 0.9 W 28 46 15 25 - - 21.6
30/08:30pm 3.9 -3.5 2.1 88 0.7 W 30 41 16 22 - - 21.6
30/08:00pm 4.4 -3.6 1.4 81 1.2 W 33 52 18 28 - - 21.0
30/07:38pm 4.1 -3.6 2.3 88 0.7 W 32 54 17 29 - - 21.0
30/07:30pm 3.9 -3.8 2.4 90 0.6 W 32 44 17 24 - - 21.0
30/07:12pm 3.3 -3.6 2.3 93 0.4 W 28 46 15 25 - - 20.8
30/07:00pm 3.4 -3.5 2.8 96 0.2 W 28 37 15 20 - - 20.4
30/06:30pm 3.4 -1.9 3.0 97 0.2 N 20 28 11 15 - - 19.4
30/06:00pm 3.3 -2.5 2.1 92 0.5 WNW 22 24 12 13 - - 19.2
30/05:30pm 3.2 -3.7 2.3 94 0.4 W 28 41 15 22 - - 18.4
30/05:13pm 3.8 -3.8 3.1 95 0.3 W 32 50 17 27 - - 17.0
30/05:00pm 4.1 -3.1 2.9 92 0.5 W 30 44 16 24 - - 15.8
30/04:42pm 4.5 -3.2 3.6 94 0.4 W 33 54 18 29 - - 14.6
30/04:30pm 4.6 -3.4 3.9 95 0.3 WNW 35 44 19 24 - - 13.4
30/04:00pm 5.0 -2.4 4.1 94 0.4 WNW 32 43 17 23 - - 12.0
30/03:52pm 5.3 -2.6 4.1 92 0.5 W 35 54 19 29 - - 11.6
30/03:32pm 6.2 -1.8 5.8 97 0.2 NW 37 56 20 30 - - 11.4
30/03:30pm 6.0 -2.8 5.4 96 0.3 WNW 41 56 22 30 - - 11.4
30/03:21pm 5.9 -1.5 5.2 95 0.3 NW 33 54 18 29 - - 11.2
30/03:11pm 6.4 0.2 6.0 97 0.2 NW 28 39 15 21 - - 11.2
30/03:00pm 6.3 2.2 6.0 98 0.1 NNW 17 20 9 11 - - 10.8
30/02:30pm 5.9 0.7 5.5 97 0.2 NW 22 32 12 17 - - 10.6
30/02:00pm 5.8 1.5 5.4 97 0.2 NW 17 20 9 11 - - 10.0
30/01:30pm 5.9 1.6 5.3 96 0.3 WNW 17 22 9 12 - - 9.6
30/01:00pm 5.6 0.8 4.7 94 0.4 WNW 19 28 10 15 - - 8.8
30/12:30pm 5.7 -2.2 4.3 91 0.6 W 35 50 19 27 - - 7.8
30/12:00pm 6.3 -1.4 5.3 93 0.5 W 35 50 19 27 - - 6.8
30/11:44am 6.6 -1.8 5.4 92 0.5 W 39 57 21 31 - - 6.4
30/11:43am 6.7 -1.3 5.7 93 0.5 W 37 52 20 28 - - 6.4
30/11:30am 7.8 2.3 7.5 98 0.1 NW 26 32 14 17 - - 6.2
30/11:00am 8.0 2.1 7.7 98 0.1 NW 28 35 15 19 - - 6.0
30/10:30am 7.8 1.1 7.5 98 0.1 NW 32 41 17 22 - - 5.6
30/10:00am 7.7 0.8 7.1 96 0.3 WNW 33 46 18 25 - - 5.2
30/09:47am 8.0 0.0 7.4 96 0.3 WNW 39 44 21 24 - - 4.6
30/09:37am 8.2 -3.6 7.6 96 0.3 WNW 59 80 32 43 - - 4.0
30/09:35am 8.3 -5.3 7.7 96 0.3 WNW 69 80 37 43 - - 3.8
30/09:33am 8.6 -0.5 8.5 99 0.0 NNW 46 69 25 37 - - 3.8
30/09:30am 8.9 0.3 8.8 99 0.0 NNW 44 57 24 31 - - 3.2
30/09:00am 8.9 0.2 8.6 98 0.1 NNW 44 54 24 29 - - 6.2
30/08:39am 8.8 -1.8 8.4 97 0.2 NNW 54 82 29 44 - - 4.6
30/08:30am 8.8 -1.8 8.4 97 0.2 NNW 54 67 29 36 - - 4.0
30/08:10am 8.9 -2.2 7.8 93 0.5 NNW 56 78 30 42 - - 2.0
30/08:00am 9.3 -1.8 7.9 91 0.7 NNW 56 70 30 38 - - 1.4
30/07:31am 10.3 -2.7 7.2 81 1.5 NNW 65 83 35 45 - - 1.0
30/07:30am 10.3 -3.1 7.2 81 1.5 NNW 67 83 36 45 - - 1.0
30/07:05am 10.5 -2.7 6.5 76 1.9 NNW 65 83 35 45 - - 1.0
30/07:00am 10.5 -2.3 6.6 77 1.9 NNW 63 80 34 43 - - 1.0
30/06:31am 10.3 -2.4 6.8 79 1.7 NNW 63 89 34 48 - - 1.0
30/06:30am 10.3 -2.4 6.8 79 1.7 NNW 63 74 34 40 - - 1.0
30/06:11am 10.2 -0.9 6.5 78 1.8 NNW 54 72 29 39 - - 1.0
30/06:00am 10.1 -0.9 6.8 80 1.6 NNW 54 70 29 38 - - 1.0
30/05:30am 9.8 -1.7 6.9 82 1.4 NNW 57 78 31 42 - - 1.0
30/05:00am 9.4 -2.8 7.2 86 1.1 NNW 61 80 33 43 - - 1.0
30/04:38am 9.3 -3.3 7.1 86 1.1 NNW 63 87 34 47 - - 1.0
30/04:30am 9.5 -3.2 6.9 84 1.2 NNW 63 80 34 43 - - 1.0
30/04:00am 9.4 -3.0 6.7 83 1.3 NNW 61 72 33 39 - - 1.0
30/03:30am 9.2 -3.6 6.3 82 1.4 NNW 63 87 34 47 - - 1.0
30/03:00am 9.1 -4.5 6.0 81 1.5 NNW 67 85 36 46 - - 1.0
30/02:30am 9.1 -4.1 6.2 82 1.4 NNW 65 85 35 46 - - 1.0
30/02:00am 9.0 -3.8 6.3 83 1.3 NNW 63 96 34 52 - - 1.0
30/01:30am 8.9 -4.9 7.2 89 0.8 NNW 69 109 37 59 - - 1.0
30/01:00am 8.8 -5.9 7.4 91 0.7 NNW 74 98 40 53 - - 1.0
30/12:42am 8.7 -7.1 7.2 90 0.7 NNW 80 104 43 56 - - 1.0
30/12:41am 8.8 -8.4 7.3 90 0.7 NNW 87 104 47 56 - - 1.0
30/12:40am 8.7 -4.3 7.3 91 0.7 NNW 65 104 35 56 - - 1.0
30/12:30am 8.4 -3.8 7.2 92 0.6 NNW 61 85 33 46 - - 1.0
30/12:00am 8.5 -5.7 7.6 94 0.4 NW 72 96 39 52 - - 0.8
 
Date/Time
EST
Temp
°C
App
Temp
°C
Dew
Point
Rel
Hum
%
Delta-T
°C
Wind Press
QNH
hPa
Press
MSL
hPa
Rain
since 9 am
mm
Dir
 
Spd
km/h
Gust
km/h
Spd
kts
Gust
kts
29/11:54pm 8.4 -4.1 7.6 95 0.4 NNW 63 96 34 52 - - 0.8
29/11:42pm 8.4 -2.0 7.8 96 0.3 NNW 52 70 28 38 - - 0.8
29/11:30pm 8.4 -1.6 7.8 96 0.3 NNW 50 65 27 35 - - 0.8
29/11:05pm 8.7 -2.7 7.6 93 0.5 NW 57 76 31 41 - - 0.2
29/11:00pm 8.7 -4.2 7.6 93 0.5 NNW 65 78 35 42 - - 0.2
29/10:47pm 8.8 -2.7 7.3 90 0.7 NNW 57 80 31 43 - - 0.2
29/10:46pm 8.8 -2.5 7.3 90 0.7 NNW 56 67 30 36 - - 0.2
29/10:30pm 9.2 -6.4 6.6 84 1.2 NNW 78 106 42 57 - - 0.2
29/10:20pm 9.2 -8.1 6.6 84 1.2 NW 87 106 47 57 - - 0.2
29/10:18pm 9.0 -8.2 7.0 87 1.0 NNW 87 96 47 52 - - 0.2
29/10:00pm 9.2 -3.8 7.0 86 1.1 NNW 65 91 35 49 - - 0.2
29/09:30pm 9.7 -4.9 6.2 79 1.7 NNW 72 104 39 56 - - 0.2
29/09:00pm 9.5 -3.0 6.0 79 1.6 NW 61 87 33 47 - - 0.2
29/08:30pm 9.5 -4.7 6.0 79 1.6 NNW 70 91 38 49 - - 0.2
29/08:00pm 9.0 -4.7 5.9 81 1.5 NNW 67 89 36 48 - - 0.2
29/07:30pm 9.4 -2.8 5.4 76 1.9 NNW 59 83 32 45 - - 0.2
29/07:00pm 8.9 -2.7 5.6 80 1.5 NNW 56 78 30 42 - - 0.2
29/06:52pm 8.8 -1.3 5.9 82 1.4 NNW 48 70 26 38 - - 0.2
29/06:49pm 8.8 -0.9 5.9 82 1.4 NNW 46 54 25 29 - - 0.2
29/06:30pm 8.9 -5.2 5.5 79 1.6 NNW 69 91 37 49 - - 0.2
29/06:00pm 9.6 -4.0 4.4 70 2.4 NW 65 85 35 46 - - 0.2
29/05:30pm 9.8 -4.7 4.4 69 2.5 NW 70 96 38 52 - - 0.2
29/05:18pm 10.1 -4.8 4.7 69 2.5 NNW 72 107 39 58 - - 0.2
29/05:00pm 10.2 -2.1 5.2 71 2.3 NW 59 82 32 44 - - 0.2
29/04:30pm 10.5 -2.7 4.6 67 2.7 NW 63 82 34 44 - - 0.2
29/04:03pm 10.9 -3.1 4.1 63 3.1 NW 67 106 36 57 - - 0.2
29/04:00pm 11.2 -2.0 4.7 64 3.0 NW 63 83 34 45 - - 0.2
29/03:30pm 11.3 -0.6 5.4 67 2.8 NW 57 76 31 41 - - 0.2
29/03:00pm 11.9 0.3 6.6 70 2.6 NNW 57 83 31 45 - - 0.2
29/02:30pm 12.4 0.3 6.2 66 3.0 NNW 59 80 32 43 - - 0.2
29/02:02pm 10.7 -0.8 6.1 73 2.2 NW 56 76 30 41 - - 0.2
29/02:00pm 10.9 -0.4 5.4 69 2.6 NW 54 69 29 37 - - 0.2
29/01:30pm 12.2 1.6 4.9 61 3.4 NNW 50 69 27 37 - - 0.2
29/01:00pm 12.1 2.0 5.5 64 3.1 NNW 48 67 26 36 - - 0.2
29/12:34pm 12.3 2.9 7.2 71 2.5 NNW 46 65 25 35 - - 0.2
29/12:30pm 12.2 2.6 7.9 75 2.2 NNW 48 61 26 33 - - 0.2
29/12:29pm 12.1 2.0 7.6 74 2.2 NNW 50 69 27 37 - - 0.2
29/12:00pm 9.7 -0.5 6.8 82 1.4 NNW 50 61 27 33 - - 0.0
29/11:43am 11.9 2.8 6.8 71 2.5 NNW 44 69 24 37 - - 0.0
29/11:30am 12.7 3.6 7.0 68 2.8 NNW 44 61 24 33 - - 0.0
29/11:04am 10.1 0.8 6.1 76 1.9 NNW 44 63 24 34 - - 0.0
29/11:00am 9.6 0.3 6.1 79 1.7 NNW 44 56 24 30 - - 0.0
29/10:33am 8.7 0.0 7.5 92 0.6 NW 43 61 23 33 - - 0.0
29/10:30am 7.7 -2.0 5.8 88 0.9 NW 46 61 25 33 - - 0.0
29/10:00am 8.9 0.3 6.5 85 1.1 NNW 41 54 22 29 - - 0.0
29/09:51am 9.0 -0.1 5.9 81 1.5 NW 43 61 23 33 - - 0.0
29/09:30am 8.4 -1.7 3.5 71 2.2 NW 46 61 25 33 - - 0.0
29/09:00am 8.7 -1.3 4.5 75 1.9 NW 46 67 25 36 - - 12.8
29/08:48am 8.1 -2.9 3.2 71 2.1 NW 50 69 27 37 - - 12.8
29/08:30am 7.7 -4.1 3.0 72 2.0 NW 54 67 29 36 - - 12.8
29/08:15am 7.6 -2.5 3.6 76 1.8 NW 46 65 25 35 - - 12.8
29/08:00am 7.2 -3.2 4.3 82 1.3 WNW 48 59 26 32 - - 12.8
29/07:30am 6.7 -4.0 4.7 87 0.9 NW 50 61 27 33 - - 12.8
29/07:09am 6.1 -3.5 4.3 88 0.8 WNW 44 63 24 34 - - 12.8
29/07:00am 6.3 -2.3 4.5 88 0.8 NW 39 52 21 28 - - 12.8
29/06:42am 6.1 -4.4 3.8 85 1.0 WNW 48 67 26 36 - - 12.8
29/06:30am 6.0 -4.9 3.8 86 1.0 WNW 50 67 27 36 - - 12.8
29/06:00am 6.0 -5.8 4.6 91 0.6 WNW 56 74 30 40 - - 12.6
29/05:58am 6.0 -5.9 4.5 90 0.7 WNW 56 74 30 40 - - 12.6
29/05:34am 6.4 -7.9 4.9 90 0.7 WNW 69 78 37 42 - - 12.6
29/05:30am 6.4 -4.1 5.4 93 0.5 WNW 50 76 27 41 - - 12.6
29/05:00am 6.3 -4.4 4.8 90 0.7 WNW 50 70 27 38 - - 11.4
29/04:36am 6.4 -5.3 5.5 94 0.4 NW 56 82 30 44 - - 11.4
29/04:30am 6.1 -5.6 5.4 95 0.3 NW 56 72 30 39 - - 11.4
29/04:00am 6.0 -4.9 5.6 97 0.2 NW 52 72 28 39 - - 11.4
29/03:41am 5.8 -4.0 5.5 98 0.1 NW 46 65 25 35 - - 11.4
29/03:30am 5.8 -4.3 5.5 98 0.1 NW 48 56 26 30 - - 11.4
29/03:17am 5.9 -4.2 5.6 98 0.1 NW 48 67 26 36 - - 11.4
29/03:00am 5.5 -5.5 5.1 97 0.2 NW 52 69 28 37 - - 11.0
29/02:30am 5.9 -7.3 4.7 92 0.5 WNW 63 89 34 48 - - 7.4
29/02:23am 6.8 -4.9 5.4 91 0.6 WNW 56 83 30 45 - - 6.8
29/02:19am 7.6 -3.9 6.9 95 0.3 NW 57 69 31 37 - - 6.4
29/02:18am 7.5 -0.6 6.8 95 0.3 NW 39 69 21 37 - - 6.4
29/02:00am 7.9 -0.6 7.1 95 0.4 NNW 41 57 22 31 - - 5.0
29/01:31am 9.2 -1.2 5.9 80 1.5 NNW 50 70 27 38 - - 3.4
29/01:30am 9.1 -1.0 5.8 80 1.5 NNW 48 63 26 34 - - 3.4
29/01:03am 9.0 -2.8 5.6 79 1.6 NNW 57 76 31 41 - - 3.4
29/01:00am 9.0 -2.9 5.4 78 1.7 NNW 57 70 31 38 - - 3.4
29/12:31am 9.0 -4.0 5.6 79 1.6 NNW 63 82 34 44 - - 3.4
29/12:30am 9.0 -4.0 5.6 79 1.6 NNW 63 74 34 40 - - 3.4
29/12:05am 9.1 -4.3 5.5 78 1.7 NNW 65 85 35 46 - - 3.4
29/12:00am 9.0 -4.3 5.6 79 1.6 NNW 65 78 35 42 - - 3.4
 
Date/Time
EST
Temp
°C
App
Temp
°C
Dew
Point
Rel
Hum
%
Delta-T
°C
Wind Press
QNH
hPa
Press
MSL
hPa
Rain
since 9 am
mm
Dir
 
Spd
km/h
Gust
km/h
Spd
kts
Gust
kts
28/11:30pm 9.3 -1.9 6.0 80 1.6 NW 54 74 29 40 - - 3.4
28/11:21pm 9.1 -0.8 6.4 83 1.3 NNW 48 69 26 37 - - 3.4
28/11:00pm 8.8 -0.4 5.4 79 1.6 NW 43 56 23 30 - - 3.4
28/10:51pm 8.7 -0.6 5.1 78 1.6 NW 43 61 23 33 - - 3.4
28/10:30pm 8.9 -1.9 5.8 81 1.4 NW 52 63 28 34 - - 3.4
28/10:19pm 8.9 -1.6 5.6 80 1.5 NW 50 72 27 39 - - 3.4
28/10:00pm 8.9 -2.5 6.5 85 1.1 NW 56 63 30 34 - - 3.4
28/09:59pm 9.0 -2.6 6.8 86 1.0 NW 57 63 31 34 - - 3.4
28/09:49pm 9.2 1.5 7.2 87 1.0 NW 37 56 20 30 - - 3.4
28/09:30pm 9.2 1.2 7.5 89 0.8 NW 39 50 21 27 - - 3.4
28/09:00pm 9.2 0.6 8.0 92 0.6 NNW 43 50 23 27 - - 3.4
28/08:30pm 9.4 -0.1 8.3 93 0.5 NNW 48 63 26 34 - - 3.4
28/08:20pm 9.2 0.0 8.0 92 0.6 NNW 46 56 25 30 - - 3.4
28/08:00pm 9.6 3.0 8.5 93 0.5 WNW 33 54 18 29 - - 3.4
28/07:49pm 9.7 3.2 8.8 94 0.5 NW 33 54 18 29 - - 3.4
28/07:30pm 10.2 2.6 9.1 93 0.6 WNW 39 48 21 26 - - 3.0
28/07:26pm 10.2 3.0 9.1 93 0.6 WNW 37 43 20 23 - - 3.0
28/07:15pm 10.6 -1.2 9.0 90 0.8 WNW 61 80 33 43 - - 3.0
28/07:00pm 10.4 -1.3 9.3 93 0.6 WNW 61 76 33 41 - - 3.0
28/06:49pm 11.0 -0.3 9.6 91 0.7 WNW 59 87 32 47 - - 3.0
28/06:40pm 11.2 1.8 10.3 94 0.5 WNW 50 69 27 37 - - 3.0
28/06:33pm 11.7 3.9 11.2 97 0.3 WNW 43 59 23 32 - - 2.8
28/06:30pm 11.5 3.1 11.0 97 0.3 NNW 46 72 25 39 - - 2.8
28/06:20pm 11.5 3.7 11.0 97 0.3 NNW 43 69 23 37 - - 2.4
28/06:00pm 11.6 3.8 11.1 97 0.3 NNW 43 59 23 32 - - 2.2
28/05:30pm 11.9 3.1 11.1 95 0.4 NNW 48 69 26 37 - - 1.4
28/05:24pm 11.8 3.4 10.9 94 0.5 NNW 46 69 25 37 - - 1.2
28/05:00pm 11.9 4.1 11.0 94 0.5 NNW 43 57 23 31 - - 0.8
28/04:55pm 12.2 3.0 10.9 92 0.7 NW 50 57 27 31 - - 0.8
28/04:51pm 12.0 4.1 10.9 93 0.6 NNW 43 57 23 31 - - 0.6
28/04:37pm 12.4 3.1 10.6 89 1.0 NW 50 69 27 37 - - 0.2
28/04:30pm 12.5 2.4 10.4 87 1.1 NW 54 69 29 37 - - 0.2
28/04:19pm 13.5 4.0 9.9 79 1.9 NW 50 65 27 35 - - 0.0
28/04:00pm 13.2 -0.5 9.8 80 1.8 NW 72 102 39 55 - - 0.0
28/03:30pm 16.0 3.2 8.0 59 4.1 NW 65 95 35 51 - - 0.0
28/03:02pm 15.1 1.6 8.1 63 3.6 NW 69 93 37 50 - - 0.0
28/03:00pm 14.7 -4.3 8.2 65 3.3 NNW 98 139 53 75 - - 0.0
28/02:59pm 14.6 -4.7 8.5 67 3.1 NNW 100 139 54 75 - - 0.0
28/02:30pm 15.6 2.1 8.1 61 3.9 NNW 69 98 37 53 - - 0.0
28/02:23pm 15.0 3.5 8.7 66 3.3 NNW 59 82 32 44 - - 0.0
28/02:21pm 14.9 4.5 9.1 68 3.0 NNW 54 63 29 34 - - 0.0
28/02:19pm 14.7 0.5 9.1 69 2.9 NNW 74 93 40 50 - - 0.0
28/02:18pm 14.4 -1.0 9.0 70 2.8 NNW 80 93 43 50 - - 0.0
28/02:16pm 13.9 3.4 8.9 72 2.6 NNW 54 93 29 50 - - 0.0
28/02:13pm 13.6 4.0 9.5 76 2.1 NNW 50 65 27 35 - - 0.0
28/02:04pm 14.7 -1.4 8.6 67 3.2 NNW 83 102 45 55 - - 0.0
28/02:02pm 15.6 -1.3 8.4 62 3.7 NNW 87 102 47 55 - - 0.0
28/02:00pm 15.7 4.0 7.7 59 4.1 NNW 59 91 32 49 - - 0.0
28/01:30pm 18.0 3.4 6.2 46 5.9 NNW 72 98 39 53 - - 0.0
28/01:00pm 18.4 3.8 5.9 44 6.3 NNW 72 109 39 59 - - 0.0
28/12:30pm 19.2 3.9 6.3 43 6.6 NNW 76 107 41 58 - - 0.0
28/12:00pm 19.6 3.3 4.9 38 7.3 NNW 80 119 43 64 - - 0.0
28/11:59am 19.5 3.1 4.8 38 7.3 NNW 80 119 43 64 - - 0.0
28/11:52am 19.6 4.6 4.1 36 7.6 NNW 72 98 39 53 - - 0.0
28/11:49am 19.8 0.1 5.1 38 7.3 NNW 98 120 53 65 - - 0.0
28/11:34am 19.9 5.6 4.8 37 7.5 NNW 69 113 37 61 - - 0.0
28/11:30am 20.0 6.4 4.5 36 7.6 NNW 65 91 35 49 - - 0.0
28/11:00am 20.0 4.4 4.9 37 7.5 NNW 76 104 41 56 - - 0.0
28/10:57am 20.4 3.5 5.2 37 7.6 NNW 83 104 45 56 - - 0.0
28/10:30am 20.7 8.6 5.9 38 7.5 NNW 59 91 32 49 - - 0.0
28/10:14am 21.1 9.3 5.5 36 7.9 NNW 57 76 31 41 - - 0.0
28/10:12am 21.5 10.3 5.8 36 8.0 NW 54 59 29 32 - - 0.0
28/10:03am 21.8 7.2 6.1 36 8.1 NNW 72 109 39 59 - - 0.0
28/10:00am 22.1 8.1 6.3 36 8.2 NNW 69 89 37 48 - - 0.0
28/09:46am 21.6 5.1 5.9 36 8.0 NNW 82 126 44 68 - - 0.0
28/09:44am 21.7 4.8 5.2 34 8.3 NNW 83 104 45 56 - - 0.0
28/09:43am 21.6 3.8 5.9 36 8.0 NNW 89 104 48 56 - - 0.0
28/09:42am 21.5 8.3 6.2 37 7.9 NNW 65 104 35 56 - - 0.0
28/09:30am 21.0 9.2 7.3 41 7.2 NNW 59 78 32 42 - - 0.0
28/09:17am 19.4 9.5 6.8 44 6.5 NNW 48 76 26 41 - - 0.0
28/09:00am 19.3 11.0 7.7 47 6.1 N 41 52 22 28 - - 0.0
28/08:30am 16.9 9.8 8.1 56 4.6 NNW 35 46 19 25 - - 0.0
28/08:00am 15.9 8.8 7.9 59 4.1 NNW 35 41 19 22 - - 0.0
28/07:30am 14.5 9.1 8.0 65 3.3 N 26 32 14 17 - - 0.0
28/07:00am 13.4 8.7 7.8 69 2.8 N 22 28 12 15 - - 0.0
28/06:30am 12.0 9.6 7.1 72 2.4 NW 9 17 5 9 - - 0.0
28/06:00am 12.1 10.1 7.2 72 2.4 NNW 7 15 4 8 - - 0.0
28/05:30am 11.7 7.3 7.4 75 2.1 N 20 28 11 15 - - 0.0
28/05:00am 11.5 8.7 6.8 73 2.3 N 11 19 6 10 - - 0.0
28/04:30am 11.7 9.6 6.6 71 2.5 NNW 7 15 4 8 - - 0.0
28/04:00am 11.3 7.0 6.8 74 2.2 N 19 30 10 16 - - 0.0

Other Formats:

Comma delimited format used in spreadsheet applications
http://www.bom.gov.au/fwo/IDT60801/IDT60801.95958.axf

JavaScript Object Notation format (JSON) in row-major order
http://www.bom.gov.au/fwo/IDT60801/IDT60801.95958.json